Time;durP1;ratioP1;P1;durP2;ratioP2;P2;SDS_P1;SDS_P2;PMS_P1;PMS_P2;Temp;Humidity;BMP_temperature;BMP_pressure;BME280_temperature;BME280_humidity;BME280_pressure;Samples;Min_cycle;Max_cycle;Signal;HPM_P1;HPM_P2
2021/12/22 00:01:12;;;;;;;0.40;0.40;;;1.30;99.90;;;;;;5115611;28;20418;-69
2021/12/22 00:03:59;;;;;;;0.40;0.40;;;1.40;99.90;;;;;;5129904;28;20458;-69
2021/12/22 00:06:46;;;;;;;0.77;0.77;;;1.50;99.90;;;;;;5134416;28;20450;-70
2021/12/22 00:09:34;;;;;;;3.80;3.60;;;1.50;99.90;;;;;;5130023;28;20498;-70
2021/12/22 00:12:21;;;;;;;0.40;0.40;;;1.50;99.90;;;;;;5128842;28;20451;-70
2021/12/22 00:15:09;;;;;;;0.40;0.40;;;1.40;99.90;;;;;;5124086;28;20482;-69
2021/12/22 00:17:56;;;;;;;0.40;0.40;;;1.50;99.90;;;;;;5116323;27;20441;-69
2021/12/22 00:20:43;;;;;;;0.40;0.40;;;1.50;99.90;;;;;;5114616;28;20434;-70
2021/12/22 00:23:30;;;;;;;0.57;0.57;;;1.50;99.90;;;;;;5115264;28;20926;-69
2021/12/22 00:26:18;;;;;;;0.40;0.40;;;1.50;99.90;;;;;;5115937;27;20425;-69
2021/12/22 00:29:07;;;;;;;0.40;0.40;;;1.40;99.90;;;;;;5114784;28;20434;-69
2021/12/22 00:32:10;;;;;;;0.77;0.77;;;1.40;99.90;;;;;;5114582;28;20518;-69
2021/12/22 00:34:57;;;;;;;0.50;0.50;;;1.40;99.90;;;;;;5114986;27;20425;-69
2021/12/22 00:37:44;;;;;;;0.40;0.40;;;1.40;99.90;;;;;;5114668;28;20770;-69
2021/12/22 00:40:31;;;;;;;0.57;0.57;;;1.40;99.90;;;;;;5113331;28;21080;-68
2021/12/22 00:43:19;;;;;;;0.73;0.73;;;1.40;99.90;;;;;;5113673;28;20495;-69
2021/12/22 00:46:06;;;;;;;1.20;1.10;;;1.40;99.90;;;;;;5113567;28;20475;-69
2021/12/22 00:48:53;;;;;;;0.50;0.50;;;1.30;99.90;;;;;;5113793;28;20417;-69
2021/12/22 00:51:40;;;;;;;0.40;0.40;;;1.30;99.90;;;;;;5113511;28;20465;-69
2021/12/22 00:54:27;;;;;;;0.40;0.40;;;1.30;99.90;;;;;;5114366;28;20425;-69
2021/12/22 00:57:16;;;;;;;1.60;1.60;;;1.20;99.90;;;;;;5114220;28;20430;-69
2021/12/22 01:00:07;;;;;;;0.50;0.50;;;1.20;99.90;;;;;;5113087;28;20958;-68
2021/12/22 01:02:54;;;;;;;0.50;0.50;;;1.10;99.90;;;;;;5114219;28;20475;-70
2021/12/22 01:05:41;;;;;;;0.40;0.40;;;1.10;99.90;;;;;;5113674;28;20430;-69
2021/12/22 01:08:28;;;;;;;1.70;1.60;;;1.20;99.90;;;;;;5113392;28;20418;-69
2021/12/22 01:11:15;;;;;;;1.90;1.80;;;1.20;99.90;;;;;;5112706;28;20484;-68
2021/12/22 01:14:03;;;;;;;2.10;1.90;;;1.20;99.90;;;;;;5113520;28;20437;-70
2021/12/22 01:16:55;;;;;;;0.50;0.50;;;1.20;99.90;;;;;;5112862;28;20908;-69
2021/12/22 01:19:49;;;;;;;0.60;0.60;;;1.10;99.90;;;;;;5113132;28;20852;-68
2021/12/22 01:22:47;;;;;;;0.73;0.73;;;1.10;99.90;;;;;;5113500;28;20418;-69
2021/12/22 01:25:38;;;;;;;0.40;0.40;;;1.10;99.90;;;;;;5113246;28;20466;-68
2021/12/22 01:28:27;;;;;;;1.33;1.23;;;1.00;99.90;;;;;;5113654;28;20422;-69
2021/12/22 01:31:16;;;;;;;0.50;0.50;;;1.00;99.90;;;;;;5112362;28;20574;-69
2021/12/22 01:34:04;;;;;;;0.40;0.40;;;1.00;99.90;;;;;;5112264;28;20414;-70
2021/12/22 01:36:51;;;;;;;0.40;0.40;;;1.00;99.90;;;;;;5112325;28;20434;-69
2021/12/22 01:39:38;;;;;;;0.40;0.40;;;1.00;99.90;;;;;;5113416;28;21022;-68
2021/12/22 01:42:25;;;;;;;0.50;0.50;;;1.00;99.90;;;;;;5113879;28;20977;-69
2021/12/22 01:45:29;;;;;;;1.07;0.90;;;0.90;99.90;;;;;;5113507;28;20426;-69
2021/12/22 01:51:25;;;;;;;0.60;0.60;;;0.90;99.90;;;;;;5125207;28;20466;-69
2021/12/22 01:54:15;;;;;;;0.60;0.60;;;0.90;99.90;;;;;;5122074;28;20511;-69
2021/12/22 01:57:08;;;;;;;0.40;0.40;;;1.00;99.90;;;;;;5126489;27;20445;-69
2021/12/22 01:59:55;;;;;;;0.40;0.40;;;1.10;99.90;;;;;;5126629;28;20819;-69
2021/12/22 02:02:42;;;;;;;0.50;0.50;;;1.00;99.90;;;;;;5125071;28;20422;-70
2021/12/22 02:05:29;;;;;;;0.50;0.50;;;1.00;99.90;;;;;;5121532;28;20418;-69
2021/12/22 02:08:17;;;;;;;0.50;0.50;;;1.00;99.90;;;;;;5113914;28;20445;-70
2021/12/22 02:11:05;;;;;;;0.50;0.50;;;1.10;99.90;;;;;;5115162;28;20518;-70
2021/12/22 02:13:57;;;;;;;0.60;0.60;;;1.10;99.90;;;;;;5113408;28;20436;-69
2021/12/22 02:16:44;;;;;;;0.40;0.40;;;1.20;99.90;;;;;;5113179;28;20776;-69
2021/12/22 02:19:31;;;;;;;0.40;0.40;;;1.10;99.90;;;;;;5105319;28;20454;-69
2021/12/22 02:22:19;;;;;;;0.40;0.40;;;1.20;99.90;;;;;;5112905;28;20430;-69
2021/12/22 02:25:13;;;;;;;0.40;0.40;;;1.10;99.90;;;;;;5112292;28;20846;-69
2021/12/22 02:28:03;;;;;;;0.40;0.40;;;2.00;99.90;;;;;;5112375;28;20562;-69
2021/12/22 02:30:52;;;;;;;0.47;0.47;;;1.10;99.90;;;;;;5111966;28;20461;-69
2021/12/22 02:33:41;;;;;;;1.80;1.37;;;1.20;99.90;;;;;;5113602;27;20513;-69
2021/12/22 02:36:34;;;;;;;0.47;0.47;;;1.20;99.90;;;;;;5112752;28;20429;-69
2021/12/22 02:39:23;;;;;;;0.40;0.40;;;1.20;99.90;;;;;;5112635;28;20453;-69
2021/12/22 02:42:12;;;;;;;1.47;1.37;;;1.20;99.90;;;;;;5112666;28;20425;-68
2021/12/22 02:45:07;;;;;;;0.50;0.50;;;1.20;99.90;;;;;;5116304;28;20430;-68
2021/12/22 02:47:54;;;;;;;0.40;0.40;;;1.20;99.90;;;;;;5116908;28;20414;-69
2021/12/22 02:50:41;;;;;;;1.37;1.33;;;1.10;99.90;;;;;;5116301;28;20445;-69
2021/12/22 02:53:37;;;;;;;0.40;0.40;;;1.20;99.90;;;;;;5121102;28;20413;-70
2021/12/22 02:56:32;;;;;;;0.40;0.40;;;1.10;99.90;;;;;;5127117;28;20432;-68
2021/12/22 02:59:40;;;;;;;0.40;0.40;;;1.20;99.90;;;;;;5131544;28;20444;-69
2021/12/22 03:02:35;;;;;;;0.80;0.70;;;1.20;99.90;;;;;;5131812;28;20429;-69
2021/12/22 03:05:22;;;;;;;0.87;0.70;;;1.10;99.90;;;;;;5129431;28;20794;-69
2021/12/22 03:08:09;;;;;;;0.40;0.40;;;1.00;99.90;;;;;;5119423;28;20426;-68
2021/12/22 03:10:56;;;;;;;0.40;0.40;;;1.00;99.90;;;;;;5116444;28;20437;-69
2021/12/22 03:13:44;;;;;;;0.40;0.40;;;1.10;99.90;;;;;;5115834;28;20440;-68
2021/12/22 03:16:31;;;;;;;0.70;0.70;;;1.20;99.90;;;;;;5116011;28;20467;-68
2021/12/22 03:19:22;;;;;;;1.83;1.73;;;1.10;99.90;;;;;;5116469;28;20446;-68
2021/12/22 03:22:11;;;;;;;2.70;1.10;;;1.10;99.90;;;;;;5116526;28;20926;-68
2021/12/22 03:24:58;;;;;;;1.43;1.33;;;0.90;99.90;;;;;;5115525;28;20434;-68
2021/12/22 03:27:47;;;;;;;0.40;0.40;;;0.90;99.90;;;;;;5116969;28;20418;-68
2021/12/22 03:30:35;;;;;;;0.60;0.60;;;0.90;99.90;;;;;;5115155;28;20882;-70
2021/12/22 03:33:22;;;;;;;0.80;0.80;;;1.00;99.90;;;;;;5114534;28;20429;-69
2021/12/22 03:36:10;;;;;;;0.50;0.50;;;1.10;99.90;;;;;;5115400;28;20839;-69
2021/12/22 03:38:57;;;;;;;0.50;0.50;;;0.90;99.90;;;;;;5115884;28;20452;-69
2021/12/22 03:41:46;;;;;;;0.50;0.50;;;0.80;99.90;;;;;;5116483;27;20433;-69
2021/12/22 03:44:33;;;;;;;0.47;0.47;;;0.70;99.90;;;;;;5116036;28;20471;-69
2021/12/22 03:47:21;;;;;;;0.40;0.40;;;0.90;99.90;;;;;;5116051;28;20961;-69
2021/12/22 03:50:10;;;;;;;0.40;0.40;;;0.80;99.90;;;;;;5115810;28;20437;-69
2021/12/22 03:52:57;;;;;;;1.63;1.60;;;0.80;99.90;;;;;;5117009;27;20461;-67
2021/12/22 03:55:44;;;;;;;0.80;0.80;;;0.70;99.90;;;;;;5115504;28;20429;-68
2021/12/22 03:58:31;;;;;;;0.63;0.63;;;0.70;99.90;;;;;;5116573;27;20426;-67
2021/12/22 04:01:18;;;;;;;0.50;0.50;;;0.70;99.90;;;;;;5115946;28;20773;-68
2021/12/22 04:04:12;;;;;;;0.40;0.40;;;0.80;99.90;;;;;;5116884;28;20422;-67
2021/12/22 04:06:59;;;;;;;1.80;1.70;;;0.90;99.90;;;;;;5120094;28;20952;-68
2021/12/22 04:09:46;;;;;;;0.40;0.40;;;1.00;99.90;;;;;;5120166;28;20456;-68
2021/12/22 04:12:33;;;;;;;2.00;1.17;;;1.10;99.90;;;;;;5119811;28;20466;-68
2021/12/22 04:15:22;;;;;;;0.40;0.40;;;1.00;99.90;;;;;;5118466;28;20444;-70
2021/12/22 04:18:09;;;;;;;0.40;0.40;;;1.00;99.90;;;;;;5118961;27;20845;-69
2021/12/22 04:20:57;;;;;;;0.47;0.47;;;1.10;99.90;;;;;;5095241;28;20474;-69
2021/12/22 04:23:44;;;;;;;0.40;0.40;;;1.10;99.90;;;;;;5096186;28;20419;-68
2021/12/22 04:26:32;;;;;;;0.50;0.50;;;1.10;99.90;;;;;;5096248;28;20437;-69
2021/12/22 04:29:19;;;;;;;0.40;0.40;;;1.10;99.90;;;;;;5109573;28;20450;-69
2021/12/22 04:32:07;;;;;;;0.40;0.40;;;1.10;99.90;;;;;;5114284;28;20470;-68
2021/12/22 04:34:54;;;;;;;0.40;0.40;;;1.10;99.90;;;;;;5114478;28;20425;-68
2021/12/22 04:37:42;;;;;;;0.60;0.60;;;1.20;99.90;;;;;;5114129;28;20427;-69
2021/12/22 04:40:30;;;;;;;0.40;0.40;;;1.10;99.90;;;;;;5114697;28;20821;-70
2021/12/22 04:43:17;;;;;;;0.77;0.77;;;1.10;99.90;;;;;;5114599;28;20425;-68
2021/12/22 04:46:04;;;;;;;0.60;0.50;;;0.80;99.90;;;;;;5113641;28;20985;-69
2021/12/22 04:48:51;;;;;;;1.63;1.53;;;0.70;99.90;;;;;;5114466;28;20429;-68
2021/12/22 04:51:47;;;;;;;0.60;0.60;;;0.50;99.90;;;;;;5114590;28;20965;-69
2021/12/22 04:54:47;;;;;;;1.37;0.80;;;0.30;99.90;;;;;;5115336;28;20515;-68
2021/12/22 04:57:34;;;;;;;0.40;0.40;;;0.10;99.90;;;;;;5115257;28;20463;-70
2021/12/22 05:00:23;;;;;;;2.00;1.90;;;0.00;99.90;;;;;;5114150;28;20499;-68
2021/12/22 05:03:10;;;;;;;0.40;0.40;;;-0.30;99.90;;;;;;5114435;28;20422;-67
2021/12/22 05:05:57;;;;;;;1.40;1.03;;;-0.20;99.90;;;;;;5111986;28;20426;-68
2021/12/22 05:08:44;;;;;;;0.60;0.60;;;-0.30;99.90;;;;;;5115042;28;20475;-68
2021/12/22 05:11:32;;;;;;;0.50;0.50;;;-0.40;99.90;;;;;;5115710;28;20487;-68
2021/12/22 05:14:19;;;;;;;0.40;0.40;;;-0.40;99.90;;;;;;5114898;28;20419;-68
2021/12/22 05:17:16;;;;;;;0.50;0.50;;;-0.50;99.90;;;;;;5113779;28;20422;-67
2021/12/22 05:20:04;;;;;;;0.40;0.40;;;-0.50;99.90;;;;;;5113971;28;20445;-68
2021/12/22 05:22:52;;;;;;;2.90;2.70;;;-0.60;99.90;;;;;;5114278;28;20426;-68
2021/12/22 05:25:39;;;;;;;0.50;0.50;;;-0.60;99.90;;;;;;5113553;28;20808;-69
2021/12/22 05:28:27;;;;;;;2.83;1.17;;;-0.60;99.90;;;;;;5114004;28;20922;-68
2021/12/22 05:31:14;;;;;;;0.40;0.40;;;-0.70;99.90;;;;;;5114518;28;20440;-68
2021/12/22 05:34:01;;;;;;;0.40;0.40;;;-0.70;99.90;;;;;;5113969;28;20446;-70
2021/12/22 05:36:48;;;;;;;0.50;0.50;;;-0.80;99.90;;;;;;5114049;28;20418;-68
2021/12/22 05:39:35;;;;;;;0.40;0.40;;;-0.70;99.90;;;;;;5113559;28;20848;-70
2021/12/22 05:42:22;;;;;;;0.40;0.40;;;-0.80;99.90;;;;;;5114626;28;20429;-68
2021/12/22 05:45:10;;;;;;;0.40;0.40;;;-0.70;99.90;;;;;;5113847;28;20954;-68
2021/12/22 05:47:57;;;;;;;0.40;0.40;;;-0.70;99.90;;;;;;5113756;28;20770;-70
2021/12/22 05:50:47;;;;;;;0.50;0.50;;;-0.90;99.90;;;;;;5114657;28;20820;-68
2021/12/22 05:53:34;;;;;;;0.50;0.50;;;-0.90;99.90;;;;;;5116046;27;20468;-68
2021/12/22 05:56:20;;;;;;;0.50;0.50;;;-1.00;99.90;;;;;;5114615;28;20425;-68
2021/12/22 05:59:07;;;;;;;0.43;0.43;;;-1.00;99.90;;;;;;5116655;28;20434;-70
2021/12/22 06:01:56;;;;;;;0.40;0.40;;;-1.00;99.90;;;;;;5128544;27;20418;-69
2021/12/22 06:04:43;;;;;;;0.40;0.40;;;-1.00;99.90;;;;;;5127117;28;20426;-69
2021/12/22 06:07:29;;;;;;;0.60;0.60;;;-1.00;99.90;;;;;;5128594;28;20422;-68
2021/12/22 06:10:16;;;;;;;0.50;0.50;;;-1.00;99.90;;;;;;5128747;28;20837;-70
2021/12/22 06:13:04;;;;;;;0.40;0.40;;;-1.00;99.90;;;;;;5131062;28;20458;-68
2021/12/22 06:15:51;;;;;;;0.43;0.43;;;-1.00;99.90;;;;;;5130558;28;20475;-69
2021/12/22 06:18:44;;;;;;;1.70;1.60;;;-1.10;99.90;;;;;;5130275;28;20418;-69
2021/12/22 06:21:31;;;;;;;0.40;0.40;;;-1.10;99.90;;;;;;5131772;27;20438;-71
2021/12/22 06:24:18;;;;;;;0.50;0.50;;;-1.10;99.90;;;;;;5129688;28;20493;-69
2021/12/22 06:27:05;;;;;;;0.50;0.50;;;-1.10;99.90;;;;;;5132064;28;20437;-70
2021/12/22 06:29:53;;;;;;;0.50;0.50;;;-1.10;99.90;;;;;;5130419;28;20485;-71
2021/12/22 06:32:40;;;;;;;0.50;0.50;;;-1.10;99.90;;;;;;5113989;28;20507;-68
2021/12/22 06:35:29;;;;;;;0.40;0.40;;;-1.10;99.90;;;;;;5113334;28;20471;-69
2021/12/22 06:38:17;;;;;;;0.40;0.40;;;-1.20;99.90;;;;;;5093630;28;20415;-71
2021/12/22 06:41:04;;;;;;;1.07;1.07;;;-1.20;99.90;;;;;;5095784;28;20521;-70
2021/12/22 06:43:51;;;;;;;0.40;0.40;;;-1.20;99.90;;;;;;5111148;28;20430;-68
2021/12/22 06:46:37;;;;;;;0.43;0.43;;;-1.20;99.90;;;;;;5128981;28;20422;-70
2021/12/22 06:49:25;;;;;;;0.50;0.50;;;-1.20;99.90;;;;;;5129291;28;20476;-67
2021/12/22 06:52:13;;;;;;;0.40;0.40;;;-1.20;99.90;;;;;;5126274;28;20525;-68
2021/12/22 06:55:00;;;;;;;0.40;0.40;;;-1.30;99.90;;;;;;5124782;28;20433;-74
2021/12/22 06:57:47;;;;;;;0.40;0.40;;;-1.30;99.90;;;;;;5125545;28;20430;-70
2021/12/22 07:00:36;;;;;;;0.50;0.50;;;-1.30;99.90;;;;;;5126778;28;20450;-71
2021/12/22 07:03:22;;;;;;;0.40;0.40;;;-1.20;99.90;;;;;;5128033;28;20428;-69
2021/12/22 07:06:09;;;;;;;0.40;0.40;;;-1.30;99.90;;;;;;5129307;28;20471;-68
2021/12/22 07:08:58;;;;;;;0.50;0.50;;;-1.30;99.90;;;;;;5128916;28;20460;-71
2021/12/22 07:11:45;;;;;;;0.40;0.40;;;-1.20;99.90;;;;;;5118737;28;20963;-68
2021/12/22 07:14:32;;;;;;;0.40;0.40;;;-1.20;99.90;;;;;;5112818;28;20837;-69
2021/12/22 07:17:19;;;;;;;0.50;0.50;;;-1.20;99.90;;;;;;5113732;28;20801;-69
2021/12/22 07:20:07;;;;;;;0.50;0.50;;;-1.30;99.90;;;;;;5113308;28;20442;-68
2021/12/22 07:22:54;;;;;;;0.40;0.40;;;-1.20;99.90;;;;;;5114232;28;20479;-67
2021/12/22 07:25:42;;;;;;;0.40;0.40;;;-1.20;99.90;;;;;;5113233;28;20445;-69
2021/12/22 07:28:29;;;;;;;0.40;0.40;;;-1.20;99.90;;;;;;5113951;28;20451;-68
2021/12/22 07:31:17;;;;;;;0.40;0.40;;;-1.20;99.90;;;;;;5117241;28;20417;-68
2021/12/22 07:34:11;;;;;;;0.40;0.40;;;-1.10;99.90;;;;;;5117289;28;20465;-68
2021/12/22 07:37:03;;;;;;;0.40;0.40;;;-1.10;99.90;;;;;;5127999;27;20936;-67
2021/12/22 07:39:51;;;;;;;0.40;0.40;;;-1.10;99.90;;;;;;5137315;27;20448;-67
2021/12/22 07:42:40;;;;;;;0.70;0.70;;;-1.10;99.90;;;;;;5138204;27;20437;-67
2021/12/22 07:45:27;;;;;;;1.23;1.23;;;-1.00;99.90;;;;;;5137022;27;20462;-68
2021/12/22 07:48:14;;;;;;;0.40;0.40;;;-1.00;99.90;;;;;;5137872;27;20436;-67
2021/12/22 07:51:01;;;;;;;0.40;0.40;;;-1.00;99.90;;;;;;5139196;27;20968;-67
2021/12/22 07:53:48;;;;;;;0.40;0.40;;;-1.00;99.90;;;;;;5150469;27;20464;-67
2021/12/22 07:56:35;;;;;;;0.40;0.40;;;-1.00;99.90;;;;;;5154567;27;20429;-67
2021/12/22 07:59:23;;;;;;;0.40;0.40;;;-1.00;99.90;;;;;;5156143;27;20437;-66
2021/12/22 08:02:12;;;;;;;0.40;0.40;;;-0.90;99.90;;;;;;5156182;27;20421;-67
2021/12/22 08:04:59;;;;;;;0.47;0.47;;;-0.80;99.90;;;;;;5138509;27;20417;-66
2021/12/22 08:07:46;;;;;;;0.50;0.50;;;-0.80;99.90;;;;;;5125381;27;20441;-68
2021/12/22 08:10:34;;;;;;;0.47;0.47;;;0.10;99.90;;;;;;5117168;28;20455;-65
2021/12/22 08:13:21;;;;;;;0.40;0.40;;;-0.70;99.90;;;;;;5116354;27;20466;-66
2021/12/22 08:16:09;;;;;;;0.50;0.50;;;-0.60;99.90;;;;;;5116354;27;20434;-66
2021/12/22 08:18:56;;;;;;;0.50;0.50;;;-0.50;99.90;;;;;;5126049;27;20968;-66
2021/12/22 08:21:44;;;;;;;0.50;0.50;;;-0.50;99.90;;;;;;5125638;27;20518;-66
2021/12/22 08:24:31;;;;;;;0.50;0.50;;;-0.40;99.90;;;;;;5119599;27;20426;-66
2021/12/22 08:27:18;;;;;;;0.40;0.40;;;-0.40;99.90;;;;;;5135299;27;20429;-66
2021/12/22 08:30:08;;;;;;;0.50;0.50;;;-0.30;99.90;;;;;;5120096;27;20452;-67
2021/12/22 08:32:58;;;;;;;0.40;0.40;;;-0.20;99.90;;;;;;5122734;27;20453;-67
2021/12/22 08:38:53;;;;;;;0.60;0.60;;;-0.10;99.90;;;;;;5115292;28;20421;-67
2021/12/22 08:41:47;;;;;;;0.50;0.50;;;0.10;99.90;;;;;;5114546;28;20467;-67
2021/12/22 08:44:37;;;;;;;0.50;0.50;;;0.10;99.90;;;;;;5116940;27;20447;-67
2021/12/22 08:47:24;;;;;;;0.40;0.40;;;0.20;99.90;;;;;;5121952;27;20445;-68
2021/12/22 08:50:16;;;;;;;0.50;0.50;;;0.20;99.90;;;;;;5114281;27;20503;-67
2021/12/22 08:53:03;;;;;;;0.50;0.50;;;0.30;99.90;;;;;;5119954;27;20457;-66
2021/12/22 08:55:50;;;;;;;0.40;0.40;;;0.30;99.90;;;;;;5115471;28;20430;-66
2021/12/22 08:58:37;;;;;;;0.50;0.50;;;0.30;99.90;;;;;;5126364;27;20433;-67
2021/12/22 09:01:25;;;;;;;0.60;0.60;;;0.40;99.90;;;;;;5123317;27;20426;-66
2021/12/22 09:04:12;;;;;;;0.83;0.83;;;0.40;99.90;;;;;;5124784;27;20441;-66
2021/12/22 09:07:00;;;;;;;0.50;0.50;;;0.40;99.90;;;;;;5130364;27;20429;-66
2021/12/22 09:09:47;;;;;;;0.40;0.40;;;0.50;99.90;;;;;;5120980;27;20442;-67
2021/12/22 09:12:34;;;;;;;0.50;0.50;;;0.40;99.90;;;;;;5113462;27;20433;-67
2021/12/22 09:15:22;;;;;;;3.07;1.77;;;0.50;99.90;;;;;;5117864;27;20429;-68
2021/12/22 09:18:09;;;;;;;0.50;0.50;;;0.50;99.90;;;;;;5127768;27;20652;-67
2021/12/22 09:20:55;;;;;;;0.50;0.50;;;0.50;99.90;;;;;;5122183;27;20426;-66
2021/12/22 09:23:44;;;;;;;0.40;0.40;;;0.60;99.90;;;;;;5123845;27;20780;-66
2021/12/22 09:26:31;;;;;;;0.50;0.50;;;0.70;99.90;;;;;;5125560;27;20945;-66
2021/12/22 09:29:18;;;;;;;0.50;0.50;;;0.90;99.90;;;;;;5117909;27;20448;-67
2021/12/22 09:32:06;;;;;;;0.40;0.40;;;0.70;99.90;;;;;;5113947;27;20429;-66
2021/12/22 09:34:53;;;;;;;0.40;0.40;;;0.80;99.90;;;;;;5113398;28;20518;-66
2021/12/22 09:37:40;;;;;;;0.40;0.40;;;1.00;99.90;;;;;;5114059;28;20422;-66
2021/12/22 09:40:28;;;;;;;0.40;0.40;;;1.70;99.90;;;;;;5113229;28;20441;-68
2021/12/22 09:43:15;;;;;;;0.40;0.40;;;0.80;99.90;;;;;;5121461;27;20425;-66
2021/12/22 09:46:07;;;;;;;0.40;0.40;;;0.80;99.90;;;;;;5116238;27;20966;-66
2021/12/22 09:49:00;;;;;;;0.40;0.40;;;0.80;99.90;;;;;;5116428;27;20950;-66
2021/12/22 09:54:54;;;;;;;0.40;0.40;;;1.10;99.90;;;;;;5129809;27;20469;-66
2021/12/22 09:57:44;;;;;;;0.40;0.40;;;1.20;99.90;;;;;;5116920;27;20430;-68
2021/12/22 10:00:35;;;;;;;0.40;0.40;;;1.10;99.90;;;;;;5115957;27;20453;-68
2021/12/22 10:03:24;;;;;;;0.60;0.60;;;1.10;99.90;;;;;;5117106;27;20469;-66
2021/12/22 10:06:11;;;;;;;1.00;1.00;;;1.10;99.90;;;;;;5130859;27;21124;-67
2021/12/22 10:09:01;;;;;;;0.47;0.47;;;1.10;99.90;;;;;;5125652;27;20470;-66
2021/12/22 10:11:48;;;;;;;0.50;0.50;;;1.20;99.90;;;;;;5121235;27;20421;-67
2021/12/22 10:14:47;;;;;;;1.33;1.23;;;1.20;99.90;;;;;;5131022;27;20472;-66
2021/12/22 10:17:37;;;;;;;0.50;0.50;;;1.30;99.90;;;;;;5134992;27;20421;-67
2021/12/22 10:20:28;;;;;;;0.40;0.40;;;1.20;99.90;;;;;;5125835;27;20445;-67
2021/12/22 10:23:23;;;;;;;0.40;0.40;;;1.20;99.90;;;;;;5103263;27;20417;-67
2021/12/22 10:26:15;;;;;;;0.60;0.60;;;1.20;99.90;;;;;;5137870;27;20478;-67
2021/12/22 10:29:07;;;;;;;0.50;0.50;;;1.20;99.90;;;;;;5098613;28;20445;-69
2021/12/22 10:32:08;;;;;;;0.53;0.53;;;1.20;99.90;;;;;;5122595;28;20479;-69
2021/12/22 10:34:59;;;;;;;0.50;0.50;;;1.20;99.90;;;;;;5116962;27;21106;-68
2021/12/22 10:37:46;;;;;;;0.50;0.50;;;1.40;99.90;;;;;;5132988;28;20463;-69
2021/12/22 10:40:36;;;;;;;0.40;0.40;;;1.30;99.90;;;;;;5141148;28;20983;-71
2021/12/22 10:43:25;;;;;;;0.50;0.50;;;1.40;99.90;;;;;;5145586;28;20413;-74
2021/12/22 10:46:16;;;;;;;0.40;0.40;;;1.40;99.90;;;;;;5148661;28;20418;-69
2021/12/22 10:49:17;;;;;;;0.40;0.40;;;1.50;99.90;;;;;;5146356;28;20531;-69
2021/12/22 10:52:06;;;;;;;0.40;0.40;;;1.50;99.90;;;;;;5143459;28;20459;-69
2021/12/22 10:55:12;;;;;;;0.40;0.40;;;1.40;99.90;;;;;;5118260;28;20469;-69
2021/12/22 10:57:59;;;;;;;0.50;0.50;;;1.50;99.90;;;;;;5119658;28;20600;-68
2021/12/22 11:01:00;;;;;;;0.40;0.40;;;1.50;99.90;;;;;;5132375;28;20448;-68
2021/12/22 11:03:53;;;;;;;0.40;0.40;;;1.60;99.90;;;;;;5128355;27;20451;-70
2021/12/22 11:06:42;;;;;;;0.50;0.50;;;1.60;99.90;;;;;;5123757;27;20429;-68
2021/12/22 11:09:34;;;;;;;0.50;0.50;;;1.60;99.90;;;;;;5119808;27;20444;-68
2021/12/22 11:12:36;;;;;;;0.40;0.40;;;1.80;99.90;;;;;;5136116;27;20477;-69
2021/12/22 11:15:25;;;;;;;0.40;0.40;;;1.70;99.90;;;;;;5134101;27;20468;-70
2021/12/22 11:18:25;;;;;;;0.40;0.40;;;1.90;99.90;;;;;;5116594;27;20570;-68
2021/12/22 11:21:17;;;;;;;0.40;0.40;;;1.80;99.90;;;;;;5132929;27;20425;-69
2021/12/22 11:24:06;;;;;;;0.50;0.50;;;1.80;99.90;;;;;;5129741;27;20421;-69
2021/12/22 11:26:53;;;;;;;0.40;0.40;;;1.90;99.90;;;;;;5116264;28;20434;-69
2021/12/22 11:29:43;;;;;;;0.40;0.40;;;1.90;99.90;;;;;;5137824;27;20440;-72
2021/12/22 11:32:32;;;;;;;0.40;0.40;;;1.90;99.90;;;;;;5142285;27;20455;-69
2021/12/22 11:35:21;;;;;;;0.50;0.50;;;2.10;99.90;;;;;;5150078;27;20465;-68
2021/12/22 11:38:08;;;;;;;0.40;0.40;;;2.00;99.90;;;;;;5148232;27;20437;-68
2021/12/22 11:41:09;;;;;;;0.40;0.40;;;2.10;99.90;;;;;;5147035;27;20896;-68
2021/12/22 11:43:56;;;;;;;0.40;0.40;;;2.10;99.90;;;;;;5123927;27;20423;-68
2021/12/22 11:46:43;;;;;;;0.40;0.40;;;2.20;99.90;;;;;;5137852;27;20431;-68
2021/12/22 11:49:34;;;;;;;0.40;0.40;;;2.40;99.90;;;;;;5138606;27;20456;-67
2021/12/22 11:52:37;;;;;;;0.40;0.40;;;2.50;99.90;;;;;;5152799;27;20967;-70
2021/12/22 11:55:27;;;;;;;0.50;0.50;;;2.40;99.90;;;;;;5119588;27;20547;-69
2021/12/22 11:58:20;;;;;;;0.40;0.40;;;2.50;99.90;;;;;;5119636;27;20946;-69
2021/12/22 12:01:11;;;;;;;0.40;0.40;;;2.40;99.90;;;;;;5130361;27;20809;-68
2021/12/22 12:04:12;;;;;;;0.40;0.40;;;2.40;99.90;;;;;;5129473;27;20421;-68
2021/12/22 12:07:00;;;;;;;0.47;0.47;;;2.50;99.90;;;;;;5126978;27;20448;-68
2021/12/22 12:09:47;;;;;;;0.40;0.40;;;2.50;99.90;;;;;;5137426;27;20449;-68
2021/12/22 12:12:47;;;;;;;0.50;0.50;;;2.50;99.90;;;;;;5135919;27;20421;-68
2021/12/22 12:22:42;;;;;;;0.40;0.40;;;2.60;99.90;;;;;;5131959;27;20418;-68
2021/12/22 12:25:34;;;;;;;0.40;0.40;;;2.60;99.90;;;;;;5131899;27;20447;-69
2021/12/22 12:28:23;;;;;;;0.40;0.40;;;2.50;99.90;;;;;;5129743;27;20420;-68
2021/12/22 12:31:10;;;;;;;0.40;0.40;;;2.60;99.90;;;;;;5130953;27;20937;-68
2021/12/22 12:34:20;;;;;;;0.40;0.40;;;2.80;99.90;;;;;;5130560;27;20461;-69
2021/12/22 12:37:11;;;;;;;0.40;0.40;;;2.70;99.90;;;;;;5131122;27;20429;-68
2021/12/22 12:39:58;;;;;;;0.40;0.40;;;2.70;99.90;;;;;;5131640;27;20983;-68
2021/12/22 12:43:01;;;;;;;0.40;0.40;;;2.70;99.90;;;;;;5134162;27;20429;-69
2021/12/22 12:45:49;;;;;;;0.50;0.50;;;2.70;99.90;;;;;;5131301;27;20421;-68
2021/12/22 12:48:36;;;;;;;0.50;0.50;;;2.70;99.90;;;;;;5130255;27;20793;-68
2021/12/22 12:51:28;;;;;;;0.40;0.40;;;2.60;99.90;;;;;;5127414;27;20891;-68
2021/12/22 12:54:33;;;;;;;0.40;0.40;;;2.60;99.90;;;;;;5115192;28;20468;-69
2021/12/22 12:57:29;;;;;;;0.93;0.93;;;2.60;99.90;;;;;;5126565;27;20951;-72
2021/12/22 13:00:24;;;;;;;0.40;0.40;;;2.60;99.90;;;;;;5118893;27;20428;-69
2021/12/22 13:03:11;;;;;;;0.40;0.40;;;2.60;99.90;;;;;;5134906;27;20420;-69
2021/12/22 13:05:57;;;;;;;0.40;0.40;;;2.70;99.90;;;;;;5134357;27;20421;-68
2021/12/22 13:08:46;;;;;;;0.50;0.50;;;2.80;99.90;;;;;;5114139;28;20424;-69
2021/12/22 13:11:34;;;;;;;0.40;0.40;;;2.80;99.90;;;;;;5129418;27;20413;-68
2021/12/22 13:17:37;;;;;;;0.50;0.50;;;2.90;99.90;;;;;;5113178;28;20418;-69
2021/12/22 13:20:28;;;;;;;0.40;0.40;;;2.80;99.90;;;;;;5113947;28;20445;-69
2021/12/22 13:23:18;;;;;;;0.40;0.40;;;2.80;99.90;;;;;;5133331;27;20416;-70
2021/12/22 13:26:05;;;;;;;0.40;0.40;;;2.80;99.90;;;;;;5132900;27;20494;-71
2021/12/22 13:28:56;;;;;;;0.50;0.50;;;2.80;99.90;;;;;;5134169;27;20417;-69
2021/12/22 13:31:43;;;;;;;0.40;0.40;;;2.80;99.90;;;;;;5134235;27;20417;-70
2021/12/22 13:34:42;;;;;;;0.50;0.50;;;2.90;99.90;;;;;;5129820;27;20973;-68
2021/12/22 13:37:30;;;;;;;0.40;0.40;;;2.90;99.90;;;;;;5135853;27;20485;-69
2021/12/22 13:40:36;;;;;;;0.40;0.40;;;3.00;99.90;;;;;;5134887;27;20448;-68
2021/12/22 13:43:28;;;;;;;0.40;0.40;;;3.10;99.90;;;;;;5132803;27;20420;-68
2021/12/22 13:46:21;;;;;;;0.50;0.50;;;3.20;99.90;;;;;;5117859;27;20424;-68
2021/12/22 13:49:12;;;;;;;0.40;0.40;;;3.30;99.90;;;;;;5123480;27;20480;-68
2021/12/22 13:52:00;;;;;;;0.40;0.40;;;3.40;99.90;;;;;;5140088;27;20815;-68
2021/12/22 13:54:48;;;;;;;0.40;0.40;;;3.50;99.90;;;;;;5135622;27;20485;-69
2021/12/22 13:57:38;;;;;;;0.40;0.40;;;3.50;99.90;;;;;;5139830;27;20429;-69
2021/12/22 14:00:25;;;;;;;0.50;0.50;;;3.30;99.90;;;;;;5125814;27;20457;-69
2021/12/22 14:03:17;;;;;;;0.40;0.40;;;3.00;99.90;;;;;;5135916;27;20433;-70
2021/12/22 14:06:06;;;;;;;0.53;0.53;;;2.80;99.90;;;;;;5121150;27;20440;-70
2021/12/22 14:09:01;;;;;;;0.50;0.50;;;2.60;99.90;;;;;;5125613;27;20791;-71
2021/12/22 14:11:50;;;;;;;0.40;0.40;;;2.50;99.90;;;;;;5140810;27;20424;-68
2021/12/22 14:14:39;;;;;;;0.40;0.40;;;2.30;99.90;;;;;;5141205;27;20495;-70
2021/12/22 14:17:32;;;;;;;0.40;0.40;;;2.20;99.90;;;;;;5133463;27;20432;-69
2021/12/22 14:20:23;;;;;;;0.40;0.40;;;2.30;99.90;;;;;;5121011;28;20855;-70
2021/12/22 14:23:10;;;;;;;0.40;0.40;;;2.10;99.90;;;;;;5129267;27;20439;-68
2021/12/22 14:26:06;;;;;;;0.40;0.40;;;1.90;99.90;;;;;;5144722;27;20493;-69
2021/12/22 14:29:04;;;;;;;0.50;0.50;;;1.80;99.90;;;;;;5144221;27;20925;-68
2021/12/22 14:31:58;;;;;;;0.40;0.40;;;1.70;99.90;;;;;;5144655;27;20426;-68
2021/12/22 14:34:58;;;;;;;0.40;0.40;;;1.60;99.90;;;;;;5137998;27;20469;-70
2021/12/22 14:37:56;;;;;;;0.40;0.40;;;1.50;99.90;;;;;;5132463;27;20433;-68
2021/12/22 14:40:52;;;;;;;0.40;0.40;;;1.40;99.90;;;;;;5141369;28;21041;-69
2021/12/22 14:43:41;;;;;;;0.40;0.40;;;1.20;99.90;;;;;;5133881;28;20433;-71
2021/12/22 14:46:32;;;;;;;0.50;0.50;;;1.20;99.90;;;;;;5145704;28;20421;-72
2021/12/22 14:49:21;;;;;;;0.40;0.40;;;1.00;99.90;;;;;;5136368;28;20470;-68
2021/12/22 14:52:08;;;;;;;0.40;0.40;;;0.90;99.90;;;;;;5143888;28;20475;-69
2021/12/22 14:54:56;;;;;;;0.40;0.40;;;0.90;99.90;;;;;;5137015;28;20981;-69
2021/12/22 14:57:43;;;;;;;0.40;0.40;;;0.70;99.90;;;;;;5135835;28;20448;-68
2021/12/22 15:00:30;;;;;;;0.50;0.50;;;0.60;99.90;;;;;;5146721;28;20509;-69
2021/12/22 15:03:18;;;;;;;0.40;0.40;;;0.60;99.90;;;;;;5133836;28;20831;-71
2021/12/22 15:06:08;;;;;;;0.40;0.40;;;0.50;99.90;;;;;;5135038;28;20422;-71
2021/12/22 15:08:56;;;;;;;0.40;0.40;;;0.50;99.90;;;;;;5127174;28;20423;-74
2021/12/22 15:11:44;;;;;;;0.40;0.40;;;0.40;99.90;;;;;;5127316;28;20414;-71